KDTN

Shreveport Downtown Airport

Shreveport, Louisiana, USA

KDTN 110853Z AUTO 00000KT 10SM CLR 04/M01 A3026 RMK AO2 SLP244 T00391011 55004 $

Observed Flight Rules
Dec-11 @ 08:53 UTC (37 minutes ago) Visual Flight Rules
Wind Visibility Clouds
Calm 10 miles
  • Clear skies
Temperatures Readings
Current 4°C / 39°F
Dewpoint -1°C / 30°F
Humidity 70%
Altimeter 30.26" Hg
Pressure 1024.4 hPa
Elevation 53
Observed Flight Rules
Dec-11 @ 08:53 UTC
(37 minutes ago)
VFR
Wind Visibility
Calm 10 miles
Clouds
  • Clear skies
Temperature Dewpoint
4°C / 39°F -1°C / 30°F
Humidity Altimeter Pressure
70% 30.26" Hg 1024.4 hPa